createdAt,value
2018-08-04T00:00:23.155Z,23.00
2018-08-04T00:02:53.973Z,23.00
2018-08-04T00:05:24.776Z,23.00
2018-08-04T00:07:55.561Z,23.00
2018-08-04T00:10:26.339Z,22.90
2018-08-04T00:12:57.071Z,22.90
2018-08-04T00:15:27.807Z,22.90
2018-08-04T00:17:58.603Z,22.90
2018-08-04T00:20:29.597Z,22.80
2018-08-04T00:23:00.411Z,22.80
2018-08-04T00:25:31.057Z,22.70
2018-08-04T00:28:01.921Z,22.70
2018-08-04T00:33:02.898Z,22.80
2018-08-04T00:35:33.700Z,22.80
2018-08-04T00:38:04.583Z,22.80
2018-08-04T00:40:35.341Z,22.70
2018-08-04T00:43:06.105Z,22.60
2018-08-04T00:45:36.873Z,22.50
2018-08-04T00:48:07.627Z,22.50
2018-08-04T00:50:38.423Z,22.40
2018-08-04T00:55:39.323Z,22.40
2018-08-04T00:58:10.154Z,22.40
2018-08-04T01:00:40.957Z,22.40
2018-08-04T01:03:11.637Z,22.40
2018-08-04T01:05:42.342Z,22.40
2018-08-04T01:08:13.164Z,22.40
2018-08-04T01:10:44.017Z,22.40
2018-08-04T01:13:14.717Z,22.40
2018-08-04T01:20:46.251Z,22.30
2018-08-04T01:23:17.147Z,22.30
2018-08-04T01:25:47.902Z,22.20
2018-08-04T01:28:18.725Z,22.10
2018-08-04T01:30:50.552Z,22.00
2018-08-04T01:33:21.445Z,21.90
2018-08-04T01:35:52.387Z,21.90
2018-08-04T01:38:23.222Z,21.80
2018-08-04T01:40:54.015Z,21.80
2018-08-04T01:43:24.797Z,21.80
2018-08-04T01:45:55.726Z,21.70
2018-08-04T01:48:26.665Z,21.60
2018-08-04T01:50:57.495Z,21.50
2018-08-04T01:53:28.357Z,21.40
2018-08-04T01:55:59.860Z,21.40
2018-08-04T01:58:30.629Z,21.20
2018-08-04T02:01:02.180Z,21.20
2018-08-04T02:03:33.031Z,21.20
2018-08-04T02:06:03.879Z,21.20
2018-08-04T02:08:34.713Z,21.10
2018-08-04T02:11:05.837Z,21.10
2018-08-04T02:13:36.781Z,21.10
2018-08-04T02:16:07.619Z,21.00
2018-08-04T02:18:38.461Z,21.00
2018-08-04T02:21:09.515Z,21.00
2018-08-04T02:23:40.513Z,21.00
2018-08-04T02:26:11.362Z,21.00
2018-08-04T02:28:42.249Z,20.90
2018-08-04T02:31:13.043Z,20.90
2018-08-04T02:33:43.791Z,20.90
2018-08-04T02:36:14.567Z,20.80
2018-08-04T02:38:45.357Z,20.80
2018-08-04T02:41:16.136Z,20.80
2018-08-04T02:43:46.997Z,20.80
2018-08-04T02:46:17.804Z,20.80
2018-08-04T02:48:48.628Z,20.80
2018-08-04T02:53:49.626Z,20.80
2018-08-04T02:56:20.364Z,20.80
2018-08-04T02:58:51.154Z,20.80
2018-08-04T03:01:21.954Z,20.80
2018-08-04T03:03:52.844Z,20.80
2018-08-04T03:06:23.717Z,20.70
2018-08-04T03:08:54.519Z,20.70
2018-08-04T03:11:25.371Z,20.70
2018-08-04T03:13:56.124Z,20.70
2018-08-04T03:16:26.869Z,20.60
2018-08-04T03:19:00.537Z,20.60
2018-08-04T03:21:32.566Z,20.50
2018-08-04T03:26:33.780Z,20.50
2018-08-04T03:29:04.597Z,20.50
2018-08-04T03:31:35.309Z,20.50
2018-08-04T03:34:06.236Z,20.60
2018-08-04T03:36:37.020Z,20.60
2018-08-04T03:39:11.320Z,20.60
2018-08-04T03:41:42.634Z,20.60
2018-08-04T03:44:13.381Z,20.50
2018-08-04T03:46:44.093Z,20.50
2018-08-04T03:49:14.869Z,20.60
2018-08-04T03:51:45.650Z,20.60
2018-08-04T03:54:16.367Z,20.60
2018-08-04T03:56:47.046Z,20.60
2018-08-04T03:59:17.767Z,20.60
2018-08-04T04:04:19.790Z,20.60
2018-08-04T04:06:50.591Z,20.60
2018-08-04T04:09:21.344Z,20.70
2018-08-04T04:11:52.164Z,20.80
2018-08-04T04:14:22.938Z,20.80
2018-08-04T04:16:53.781Z,20.80
2018-08-04T04:19:25.834Z,20.90
2018-08-04T04:21:57.027Z,21.00
2018-08-04T04:24:27.979Z,21.00
2018-08-04T04:26:58.780Z,21.10
2018-08-04T04:29:29.485Z,21.20
2018-08-04T04:32:00.335Z,21.30
2018-08-04T04:34:31.241Z,21.30
2018-08-04T04:37:02.031Z,21.40
2018-08-04T04:39:32.849Z,21.40
2018-08-04T04:42:03.595Z,21.30
2018-08-04T04:44:34.464Z,21.40
2018-08-04T04:47:05.327Z,21.50
2018-08-04T04:49:37.240Z,21.50
2018-08-04T04:54:38.320Z,21.80
2018-08-04T04:57:09.162Z,22.20
2018-08-04T04:59:40.033Z,22.80
2018-08-04T05:02:10.857Z,23.30
2018-08-04T05:04:41.748Z,23.90
2018-08-04T05:07:12.518Z,24.30
2018-08-04T05:09:43.263Z,24.80
2018-08-04T05:12:14.011Z,25.00
2018-08-04T05:14:44.694Z,25.40
2018-08-04T05:17:15.610Z,25.60
2018-08-04T05:19:46.403Z,25.90
2018-08-04T05:22:17.441Z,26.40
2018-08-04T05:24:48.680Z,26.90
2018-08-04T05:27:19.533Z,27.40
2018-08-04T05:29:50.350Z,28.00
2018-08-04T05:32:21.093Z,28.40
2018-08-04T05:34:51.867Z,28.60
2018-08-04T05:37:22.694Z,29.10
2018-08-04T05:39:53.508Z,29.30
2018-08-04T05:42:24.408Z,29.70
2018-08-04T05:44:55.281Z,30.30
2018-08-04T05:47:26.149Z,30.60
2018-08-04T05:49:56.992Z,31.00
2018-08-04T05:54:58.229Z,31.70
2018-08-04T05:57:29.078Z,31.80
2018-08-04T05:59:59.889Z,32.20
2018-08-04T06:02:31.704Z,32.70
2018-08-04T06:05:02.381Z,33.40
2018-08-04T06:07:33.086Z,34.20
2018-08-04T06:10:03.930Z,34.50
2018-08-04T06:12:34.771Z,34.20
2018-08-04T06:15:05.541Z,34.70
2018-08-04T06:17:36.306Z,34.90
2018-08-04T06:20:07.158Z,35.00
2018-08-04T06:22:38.051Z,34.90
2018-08-04T06:25:08.813Z,35.50
2018-08-04T06:27:39.617Z,36.30
2018-08-04T06:30:12.488Z,37.40
2018-08-04T06:32:43.666Z,38.30
2018-08-04T06:35:14.470Z,38.50
2018-08-04T06:37:45.205Z,37.80
2018-08-04T06:40:16.034Z,37.40
2018-08-04T06:42:46.979Z,38.10
2018-08-04T06:45:17.730Z,38.70
2018-08-04T06:47:48.485Z,39.80
2018-08-04T06:52:49.655Z,40.80
2018-08-04T06:55:21.818Z,40.50
2018-08-04T06:57:52.623Z,41.00
2018-08-04T07:00:23.293Z,41.20
2018-08-04T07:02:54.046Z,40.90
2018-08-04T07:05:24.889Z,40.60
2018-08-04T07:07:55.690Z,40.50
2018-08-04T07:10:26.364Z,40.50
2018-08-04T07:12:57.074Z,41.20
2018-08-04T07:15:27.839Z,41.40
2018-08-04T07:17:58.559Z,41.20
2018-08-04T07:20:29.250Z,41.30
2018-08-04T07:23:00.297Z,41.80
2018-08-04T07:25:31.152Z,42.20
2018-08-04T07:28:01.812Z,41.80
2018-08-04T07:30:32.623Z,41.10
2018-08-04T07:33:03.394Z,41.50
2018-08-04T07:35:34.189Z,42.00
2018-08-04T07:38:04.866Z,42.60
2018-08-04T07:40:35.620Z,42.70
2018-08-04T07:43:06.420Z,42.40
2018-08-04T07:45:37.136Z,42.80
2018-08-04T07:48:07.925Z,42.60
2018-08-04T07:50:38.766Z,43.10
2018-08-04T07:53:09.565Z,43.40
2018-08-04T07:55:40.284Z,44.60
2018-08-04T07:58:10.957Z,44.30
2018-08-04T08:00:41.677Z,43.90
2018-08-04T08:03:12.364Z,43.90
2018-08-04T08:05:43.135Z,44.50
2018-08-04T08:08:13.843Z,44.50
2018-08-04T08:10:44.575Z,44.10
2018-08-04T08:13:15.337Z,44.20
2018-08-04T08:15:46.111Z,44.50
2018-08-04T08:18:16.824Z,44.50
2018-08-04T08:23:18.000Z,44.20
2018-08-04T08:26:04.456Z,44.00
2018-08-04T08:28:36.184Z,44.00
2018-08-04T08:31:06.957Z,43.90
2018-08-04T08:33:38.438Z,43.70
2018-08-04T08:36:09.856Z,43.70
2018-08-04T08:38:40.614Z,43.50
2018-08-04T08:41:11.465Z,43.70
2018-08-04T08:43:42.174Z,43.80
2018-08-04T08:46:12.918Z,43.90
2018-08-04T08:48:43.567Z,43.70
2018-08-04T08:51:14.320Z,43.60
2018-08-04T10:09:41.589Z,43.60
2018-08-04T10:12:13.275Z,42.20
2018-08-04T10:14:45.827Z,41.70
2018-08-04T10:17:20.587Z,41.30
2018-08-04T10:22:23.448Z,41.70
2018-08-04T10:24:56.362Z,41.40
2018-08-04T10:27:30.989Z,41.40
2018-08-04T10:30:02.779Z,41.20
2018-08-04T10:32:34.645Z,41.00
2018-08-04T10:35:10.008Z,40.90
2018-08-04T10:37:44.867Z,41.10
2018-08-04T10:40:15.764Z,41.20
2018-08-04T10:42:46.556Z,41.00
2018-08-04T10:47:47.745Z,41.20
2018-08-04T10:50:18.706Z,41.30
2018-08-04T10:52:50.267Z,41.30
2018-08-04T10:55:23.017Z,41.20
2018-08-04T10:57:54.713Z,40.90
2018-08-04T11:00:25.547Z,41.40
2018-08-04T11:02:56.370Z,41.30
2018-08-04T11:05:31.439Z,41.00
2018-08-04T11:08:03.436Z,40.70
2018-08-04T11:10:35.799Z,40.50
2018-08-04T11:13:07.012Z,40.80
2018-08-04T11:18:10.046Z,40.80
2018-08-04T11:20:41.634Z,40.80
2018-08-04T11:23:13.434Z,40.70
2018-08-04T11:25:54.801Z,40.60
2018-08-04T11:28:25.716Z,40.80
2018-08-04T11:30:57.552Z,40.70
2018-08-04T11:33:29.318Z,40.60
2018-08-04T11:36:02.649Z,40.80
2018-08-04T11:38:33.917Z,40.80
2018-08-04T11:41:04.833Z,40.80
2018-08-04T11:43:36.919Z,41.00
2018-08-04T11:46:10.073Z,40.60
2018-08-04T11:48:40.996Z,40.50
2018-08-04T11:51:11.924Z,40.40
2018-08-04T11:53:42.881Z,39.80
2018-08-04T11:56:13.764Z,39.90
2018-08-04T11:58:44.879Z,39.50
2018-08-04T12:01:15.823Z,39.60
2018-08-04T12:03:46.766Z,39.90
2018-08-04T12:06:17.806Z,39.90
2018-08-04T12:08:48.873Z,40.00
2018-08-04T12:13:50.474Z,40.00
2018-08-04T12:16:21.409Z,39.90
2018-08-04T12:18:52.412Z,40.00
2018-08-04T12:21:23.323Z,39.90
2018-08-04T12:23:54.267Z,40.00
2018-08-04T12:26:25.306Z,40.00
2018-08-04T12:28:56.338Z,39.80
2018-08-04T12:31:27.796Z,39.80
2018-08-04T12:33:58.709Z,39.10
2018-08-04T12:36:29.895Z,38.80
2018-08-04T12:39:01.732Z,38.70
2018-08-04T12:41:32.669Z,38.60
2018-08-04T12:44:03.731Z,38.90
2018-08-04T12:46:34.699Z,38.90
2018-08-04T12:49:07.305Z,38.90
2018-08-04T12:51:39.539Z,38.50
2018-08-04T12:54:11.112Z,38.80
2018-08-04T12:56:46.846Z,38.90
2018-08-04T13:04:45.250Z,38.60
2018-08-04T13:09:56.537Z,38.40
2018-08-04T13:12:32.682Z,38.20
2018-08-04T13:15:12.341Z,38.10
2018-08-04T13:17:50.648Z,38.10
2018-08-04T13:20:31.956Z,38.10
2018-08-04T13:23:05.725Z,38.00
2018-08-04T13:28:17.725Z,37.60
2018-08-04T13:31:03.145Z,37.70
2018-08-04T13:33:34.693Z,37.70
2018-08-04T13:36:05.794Z,37.70
2018-08-04T13:39:02.314Z,37.70
2018-08-04T13:41:33.291Z,37.70
2018-08-04T13:44:11.147Z,37.60
2018-08-04T13:46:42.855Z,37.40
2018-08-04T13:49:31.355Z,37.30
2018-08-04T13:52:07.201Z,37.30
2018-08-04T13:54:42.275Z,37.30
2018-08-04T13:57:13.372Z,37.30
2018-08-04T13:59:47.892Z,37.30
2018-08-04T14:02:18.888Z,37.30
2018-08-04T14:04:58.318Z,37.30
2018-08-04T14:07:31.120Z,37.20
2018-08-04T14:10:29.810Z,37.20
2018-08-04T14:13:09.446Z,37.20
2018-08-04T14:15:55.521Z,37.30
2018-08-04T14:18:47.608Z,37.10
2018-08-04T14:21:31.139Z,36.90
2018-08-04T14:24:02.151Z,36.90
2018-08-04T14:26:34.285Z,36.60
2018-08-04T14:39:25.119Z,36.40
2018-08-04T14:41:56.054Z,36.40
2018-08-04T14:44:27.047Z,36.30
2018-08-04T14:46:58.021Z,36.30
2018-08-04T19:07:23.562Z,29.10
2018-08-04T19:09:55.270Z,29.00
2018-08-04T19:14:58.466Z,29.00
2018-08-04T19:17:29.459Z,28.90
2018-08-04T19:20:00.309Z,28.90
2018-08-04T19:22:32.529Z,28.80
2018-08-04T19:25:03.982Z,28.70
2018-08-04T19:27:34.990Z,28.70
2018-08-04T19:30:09.480Z,28.60
2018-08-04T19:32:53.967Z,28.60
2018-08-04T19:43:07.890Z,28.50
2018-08-04T19:56:03.367Z,28.40
2018-08-04T19:58:38.083Z,28.30
2018-08-04T20:01:11.338Z,27.70
2018-08-04T20:03:54.494Z,27.60
2018-08-04T20:06:28.215Z,27.50
2018-08-04T20:08:59.643Z,27.50
2018-08-04T20:11:32.015Z,27.40
2018-08-04T20:14:26.551Z,27.40
2018-08-04T20:17:16.109Z,27.40
2018-08-04T20:19:59.985Z,27.40
